Time;durP1;ratioP1;P1;durP2;ratioP2;P2;SDS_P1;SDS_P2;PMS_P1;PMS_P2;Temp;Humidity;BMP_temperature;BMP_pressure;BME280_temperature;BME280_humidity;BME280_pressure;Samples;Min_cycle;Max_cycle;Signal;HPM_P1;HPM_P2
2023/10/15 00:01:06;;;;;;;0.40;0.30;;;;;;;16.10;70.97;95192.34;5134207;27;20511;-56
2023/10/15 00:03:35;;;;;;;0.50;0.30;;;;;;;16.02;71.71;95187.75;5135317;27;20442;-56
2023/10/15 00:06:04;;;;;;;0.60;0.30;;;;;;;15.86;72.47;95182.78;5135138;27;20446;-56
2023/10/15 00:08:32;;;;;;;0.60;0.60;;;;;;;16.01;71.80;95181.63;5135157;27;20481;-56
2023/10/15 00:11:01;;;;;;;0.40;0.30;;;;;;;16.07;71.67;95184.94;5129579;27;20956;-56
2023/10/15 00:13:29;;;;;;;0.97;0.40;;;;;;;16.06;71.17;95183.38;5127227;27;20438;-56
2023/10/15 00:15:58;;;;;;;0.40;0.20;;;;;;;15.99;72.05;95178.44;5133593;27;20445;-57
2023/10/15 00:18:28;;;;;;;0.50;0.30;;;;;;;15.95;71.70;95169.47;5134810;27;20439;-56
2023/10/15 00:21:01;;;;;;;0.40;0.30;;;;;;;16.00;72.17;95168.56;5134979;27;20769;-56
2023/10/15 00:23:31;;;;;;;0.40;0.20;;;;;;;16.03;71.68;95168.75;5134881;27;20443;-56
2023/10/15 00:25:59;;;;;;;0.50;0.40;;;;;;;15.95;71.79;95164.13;5135005;27;20470;-56
2023/10/15 00:28:29;;;;;;;0.60;0.50;;;;;;;15.93;71.72;95174.34;5134342;27;20474;-56
2023/10/15 00:31:00;;;;;;;0.50;0.50;;;;;;;15.99;71.81;95173.09;5134794;27;20434;-56
2023/10/15 00:33:31;;;;;;;0.40;0.30;;;;;;;15.94;71.09;95173.25;5134140;27;20433;-56
2023/10/15 00:36:00;;;;;;;0.47;0.27;;;;;;;15.82;72.78;95171.13;5134401;27;20431;-55
2023/10/15 00:38:29;;;;;;;2.00;1.90;;;;;;;15.79;72.12;95166.41;5134579;27;20434;-56
2023/10/15 00:41:00;;;;;;;0.50;0.30;;;;;;;15.79;72.65;95163.72;5133808;27;20438;-55
2023/10/15 00:43:30;;;;;;;0.50;0.40;;;;;;;15.80;72.59;95170.66;5134068;27;20434;-55
2023/10/15 00:46:00;;;;;;;0.60;0.40;;;;;;;15.80;72.87;95172.53;5134859;27;20427;-56
2023/10/15 00:48:35;;;;;;;0.60;0.50;;;;;;;15.76;72.81;95167.00;5107649;27;21018;-56
2023/10/15 00:51:09;;;;;;;0.40;0.30;;;;;;;15.79;72.79;95170.94;5134380;27;20469;-55
2023/10/15 00:53:47;;;;;;;0.70;0.40;;;;;;;15.84;72.29;95176.16;5134490;27;20868;-55
2023/10/15 00:56:19;;;;;;;0.70;0.70;;;;;;;15.72;73.47;95166.03;5133746;27;20442;-56
2023/10/15 00:59:08;;;;;;;0.40;0.30;;;;;;;15.62;74.04;95165.50;5134165;27;20453;-55
2023/10/15 01:01:39;;;;;;;0.50;0.30;;;;;;;15.63;74.48;95149.19;5134420;27;20445;-55
2023/10/15 01:04:10;;;;;;;0.50;0.40;;;;;;;15.69;73.64;95158.63;5134147;27;20512;-55
2023/10/15 01:06:40;;;;;;;0.40;0.23;;;;;;;15.61;74.75;95162.03;5134116;27;20442;-56
2023/10/15 01:09:10;;;;;;;0.40;0.30;;;;;;;15.39;75.81;95154.00;5120078;27;20553;-56
2023/10/15 01:11:44;;;;;;;1.07;0.70;;;;;;;15.53;75.17;95152.09;5134048;27;20434;-56
2023/10/15 01:14:14;;;;;;;0.40;0.37;;;;;;;15.62;74.75;95152.13;5133634;27;20525;-56
2023/10/15 01:16:42;;;;;;;0.93;0.57;;;;;;;15.28;74.61;95100.03;5134396;27;20442;-56
2023/10/15 01:19:20;;;;;;;0.60;0.30;;;;;;;15.48;75.27;95154.09;5133761;27;20531;-56
2023/10/15 01:21:53;;;;;;;0.50;0.30;;;;;;;15.48;74.89;95154.09;5133399;27;20434;-56
2023/10/15 01:24:22;;;;;;;0.50;0.30;;;;;;;15.44;75.22;95150.41;5133383;27;20529;-56
2023/10/15 01:27:03;;;;;;;0.57;0.57;;;;;;;15.40;75.37;95147.56;5133541;27;20466;-56
2023/10/15 01:29:33;;;;;;;0.47;0.30;;;;;;;15.40;75.21;95146.78;5133866;27;20812;-56
2023/10/15 01:32:03;;;;;;;0.40;0.30;;;;;;;15.40;75.70;95150.22;5133412;27;20971;-56
2023/10/15 01:34:37;;;;;;;0.40;0.30;;;;;;;15.37;76.00;95147.38;5133338;27;20474;-56
2023/10/15 01:37:15;;;;;;;0.40;0.20;;;;;;;15.04;77.47;95126.22;5133617;27;20476;-56
2023/10/15 01:39:48;;;;;;;0.70;0.40;;;;;;;15.09;78.98;95146.66;5132985;27;20445;-56
2023/10/15 01:45:16;;;;;;;0.40;0.30;;;;;;;15.19;78.17;95147.25;5132272;27;20450;-56
2023/10/15 01:48:05;;;;;;;0.60;0.50;;;;;;;14.93;79.95;95129.41;5133273;27;20534;-56
2023/10/15 01:50:46;;;;;;;0.50;0.30;;;;;;;14.97;80.59;95152.53;5133386;27;20446;-56
2023/10/15 01:53:14;;;;;;;0.50;0.40;;;;;;;14.94;80.50;95150.47;5132742;27;20453;-56
2023/10/15 01:55:53;;;;;;;0.53;0.50;;;;;;;14.53;83.66;95166.53;5133134;27;20527;-56
2023/10/15 01:58:31;;;;;;;2.93;0.57;;;;;;;14.66;83.21;95151.59;5133074;27;20485;-56
2023/10/15 02:01:09;;;;;;;0.40;0.40;;;;;;;14.87;81.33;95146.63;5132695;27;20447;-56
2023/10/15 02:03:38;;;;;;;0.97;0.97;;;;;;;15.06;80.10;95142.72;5133064;27;20487;-56
2023/10/15 02:06:07;;;;;;;0.70;0.63;;;;;;;14.85;81.72;95136.25;5132703;27;20435;-56
2023/10/15 02:08:39;;;;;;;0.80;0.40;;;;;;;14.90;81.34;95136.13;5131265;27;20502;-54
2023/10/15 02:11:15;;;;;;;0.40;0.30;;;;;;;14.96;80.57;95140.28;5132129;27;20441;-54
2023/10/15 02:13:46;;;;;;;0.50;0.30;;;;;;;14.92;80.04;95139.31;5132491;27;20438;-54
2023/10/15 02:16:18;;;;;;;0.40;0.30;;;;;;;14.88;80.35;95124.19;5132964;27;20474;-56
2023/10/15 02:18:51;;;;;;;0.40;0.30;;;;;;;14.85;80.59;95141.59;5132332;27;21080;-54
2023/10/15 02:21:19;;;;;;;0.50;0.40;;;;;;;14.87;80.24;95144.75;5133059;27;20439;-56
2023/10/15 02:23:51;;;;;;;0.50;0.40;;;;;;;14.63;82.39;95136.97;5131810;27;20430;-55
2023/10/15 02:26:30;;;;;;;0.50;0.30;;;;;;;14.37;85.14;95137.81;5132631;27;20491;-55
2023/10/15 02:29:07;;;;;;;0.80;0.80;;;;;;;14.42;86.04;95137.72;5132743;27;20556;-55
2023/10/15 02:31:41;;;;;;;0.60;0.60;;;;;;;14.30;86.78;95132.03;5132096;28;20426;-55
2023/10/15 02:34:14;;;;;;;0.60;0.40;;;;;;;14.33;87.41;95132.28;5132699;28;20892;-55
2023/10/15 02:36:43;;;;;;;0.40;0.30;;;;;;;14.41;86.98;95126.25;5132096;28;20495;-56
2023/10/15 02:39:13;;;;;;;0.40;0.30;;;;;;;14.19;89.14;95128.78;5132661;28;20441;-55
2023/10/15 02:41:42;;;;;;;0.80;0.63;;;;;;;13.81;93.67;95141.44;5132048;28;20430;-56
2023/10/15 02:44:13;;;;;;;0.73;0.73;;;;;;;13.70;96.05;95134.75;5133071;28;20458;-55
2023/10/15 02:46:47;;;;;;;0.40;0.30;;;;;;;13.87;94.62;95134.97;5118773;28;20441;-56
2023/10/15 02:49:17;;;;;;;1.03;0.40;;;;;;;13.95;92.79;95136.97;5132873;28;20526;-56
2023/10/15 02:51:47;;;;;;;0.50;0.40;;;;;;;13.95;92.73;95136.97;5105950;28;20469;-55
2023/10/15 02:54:27;;;;;;;0.70;0.37;;;;;;;14.10;91.47;95135.09;5132761;28;20437;-55
2023/10/15 02:56:56;;;;;;;0.50;0.40;;;;;;;13.88;89.05;95072.63;5132628;28;20438;-56
2023/10/15 02:59:29;;;;;;;0.60;0.50;;;;;;;13.95;90.75;95117.50;5132604;28;21043;-56
2023/10/15 03:02:06;;;;;;;0.50;0.30;;;;;;;14.02;89.88;95128.56;5131802;28;20837;-56
2023/10/15 03:04:37;;;;;;;0.70;0.67;;;;;;;14.25;88.13;95134.78;5131845;28;20442;-56
2023/10/15 03:07:19;;;;;;;0.90;0.40;;;;;;;14.33;86.92;95132.28;5132266;28;20434;-56
2023/10/15 03:09:51;;;;;;;6.10;0.70;;;;;;;14.31;87.68;95136.31;5107987;28;20474;-55
2023/10/15 03:12:20;;;;;;;0.60;0.50;;;;;;;14.05;88.16;95105.88;5132045;28;20445;-56
2023/10/15 03:14:51;;;;;;;0.50;0.40;;;;;;;14.40;86.48;95129.19;5132235;28;20530;-56
2023/10/15 03:17:25;;;;;;;0.50;0.40;;;;;;;14.38;86.29;95126.03;5131985;28;20950;-56
2023/10/15 03:19:55;;;;;;;0.50;0.30;;;;;;;14.37;86.36;95127.16;5132576;28;20470;-56
2023/10/15 03:22:25;;;;;;;2.90;0.40;;;;;;;14.51;85.51;95127.91;5131677;28;20946;-56
2023/10/15 03:24:56;;;;;;;0.40;0.30;;;;;;;14.19;87.47;95128.00;5132504;28;20491;-55
2023/10/15 03:27:26;;;;;;;0.40;0.30;;;;;;;14.23;87.55;95121.78;5131553;28;20485;-56
2023/10/15 03:29:57;;;;;;;0.60;0.40;;;;;;;14.23;86.68;95108.44;5131982;28;20474;-55
2023/10/15 03:32:31;;;;;;;0.83;0.50;;;;;;;13.64;87.12;95041.91;5130807;28;20435;-56
2023/10/15 03:35:07;;;;;;;0.60;0.50;;;;;;;14.14;87.40;95112.88;5114892;27;20471;-55
2023/10/15 03:37:45;;;;;;;0.50;0.40;;;;;;;14.04;87.49;95114.97;5133936;27;20445;-55
2023/10/15 03:40:30;;;;;;;0.83;0.83;;;;;;;14.17;86.26;95117.63;5135395;27;20860;-55
2023/10/15 03:43:03;;;;;;;0.70;0.60;;;;;;;14.20;85.89;95102.91;5135238;27;20987;-56
2023/10/15 03:45:40;;;;;;;1.67;0.63;;;;;;;14.25;85.79;95100.94;5135681;27;20495;-56
2023/10/15 03:48:14;;;;;;;0.60;0.50;;;;;;;14.27;86.08;95106.75;5135422;27;20434;-55
2023/10/15 03:50:53;;;;;;;1.63;1.23;;;;;;;14.22;86.83;95104.19;5134601;27;20477;-56
2023/10/15 03:53:27;;;;;;;0.40;0.30;;;;;;;14.35;85.51;95105.28;5134763;27;20438;-55
2023/10/15 03:55:58;;;;;;;0.97;0.97;;;;;;;14.45;84.29;95108.56;5134839;27;20525;-56
2023/10/15 03:58:26;;;;;;;0.50;0.30;;;;;;;14.52;83.09;95108.16;5135410;27;20466;-56
2023/10/15 04:01:11;;;;;;;2.53;0.40;;;;;;;14.43;84.17;95107.28;5135052;27;20438;-55
2023/10/15 04:03:43;;;;;;;0.47;0.40;;;;;;;14.22;85.01;95111.41;5134899;27;21002;-56
2023/10/15 04:06:13;;;;;;;6.50;0.50;;;;;;;14.16;86.17;95118.72;5134695;27;20523;-55
2023/10/15 04:08:59;;;;;;;0.50;0.43;;;;;;;14.37;84.79;95116.47;5135088;27;20454;-56
2023/10/15 04:11:32;;;;;;;0.70;0.50;;;;;;;14.38;84.24;95104.72;5111431;27;20443;-56
2023/10/15 04:14:13;;;;;;;0.50;0.30;;;;;;;14.33;84.37;95110.16;5134798;27;20510;-55
2023/10/15 04:16:43;;;;;;;1.03;0.40;;;;;;;14.08;85.48;95106.06;5134885;27;20438;-56
2023/10/15 04:19:16;;;;;;;0.83;0.50;;;;;;;14.10;85.61;95106.56;5134780;27;20430;-56
2023/10/15 04:21:45;;;;;;;0.60;0.57;;;;;;;14.11;85.80;95107.34;5134271;27;20438;-56
2023/10/15 04:24:18;;;;;;;0.50;0.50;;;;;;;13.80;87.83;95105.25;5108179;27;20442;-56
2023/10/15 04:26:49;;;;;;;0.40;0.30;;;;;;;14.04;86.37;95105.06;5134427;27;21164;-56
2023/10/15 04:29:18;;;;;;;0.53;0.40;;;;;;;14.21;85.03;95107.97;5134675;27;20477;-55
2023/10/15 04:31:59;;;;;;;0.67;0.40;;;;;;;14.09;86.00;95112.19;5133904;27;20912;-55
2023/10/15 04:34:30;;;;;;;0.60;0.43;;;;;;;13.73;89.91;95112.06;5134172;27;20584;-56
2023/10/15 04:37:01;;;;;;;0.70;0.60;;;;;;;13.70;90.24;95118.75;5133708;27;20497;-56
2023/10/15 04:39:30;;;;;;;0.60;0.50;;;;;;;13.89;88.66;95106.16;5133020;27;20525;-56
2023/10/15 04:42:02;;;;;;;0.50;0.30;;;;;;;13.87;88.96;95108.31;5133382;27;20959;-56
2023/10/15 04:44:33;;;;;;;0.40;0.30;;;;;;;13.94;87.88;95097.25;5134308;27;20445;-56
2023/10/15 04:47:08;;;;;;;0.60;0.50;;;;;;;13.99;87.28;95097.16;5133678;27;20971;-55
2023/10/15 04:49:36;;;;;;;0.60;0.30;;;;;;;14.01;86.94;95111.00;5133284;27;20465;-56
2023/10/15 04:52:13;;;;;;;0.60;0.30;;;;;;;14.04;87.31;95105.06;5133984;27;20435;-56
2023/10/15 04:54:43;;;;;;;0.60;0.50;;;;;;;14.05;87.05;95106.66;5133385;27;20430;-56
2023/10/15 04:57:11;;;;;;;0.50;0.40;;;;;;;13.91;87.40;95095.97;5134332;27;20507;-55
2023/10/15 04:59:41;;;;;;;0.53;0.43;;;;;;;14.09;86.86;95114.88;5133741;27;20500;-56
2023/10/15 05:02:11;;;;;;;1.33;0.60;;;;;;;13.99;86.85;95111.28;5133841;27;20435;-55
2023/10/15 05:04:39;;;;;;;0.87;0.87;;;;;;;13.97;88.15;95112.66;5132918;27;20797;-55
2023/10/15 05:07:07;;;;;;;0.60;0.43;;;;;;;13.93;87.97;95117.81;5133853;27;20434;-55
2023/10/15 05:09:40;;;;;;;0.60;0.30;;;;;;;14.02;87.83;95109.91;5133920;27;20498;-55
2023/10/15 05:12:08;;;;;;;0.50;0.30;;;;;;;13.87;91.45;95118.19;5133013;27;20974;-56
2023/10/15 05:14:36;;;;;;;0.77;0.60;;;;;;;13.71;93.59;95117.66;5133657;27;20438;-55
2023/10/15 05:17:05;;;;;;;0.60;0.37;;;;;;;13.75;95.21;95115.22;5133092;27;20477;-55
2023/10/15 05:19:35;;;;;;;0.50;0.33;;;;;;;13.68;95.19;95101.50;5133427;27;20438;-55
2023/10/15 05:22:04;;;;;;;0.57;0.33;;;;;;;13.72;94.74;95110.47;5133288;27;20435;-56
2023/10/15 05:24:33;;;;;;;0.60;0.40;;;;;;;13.59;92.24;95112.03;5133559;27;20448;-55
2023/10/15 05:27:01;;;;;;;0.50;0.50;;;;;;;13.38;91.76;95121.44;5132999;27;20474;-55
2023/10/15 05:29:31;;;;;;;7.27;0.47;;;;;;;13.17;93.67;95115.66;5132803;27;20439;-54
2023/10/15 05:32:00;;;;;;;1.73;0.60;;;;;;;13.41;92.00;95118.19;5132763;27;20434;-55
2023/10/15 05:34:28;;;;;;;0.90;0.70;;;;;;;13.78;90.10;95112.75;5133357;27;20445;-55
2023/10/15 05:36:58;;;;;;;0.67;0.67;;;;;;;13.82;89.08;95103.09;5119042;27;20438;-55
2023/10/15 05:39:27;;;;;;;17.43;0.50;;;;;;;14.29;86.49;95107.28;5120807;27;20444;-55
2023/10/15 05:41:55;;;;;;;0.40;0.30;;;;;;;14.76;83.55;95108.72;5133163;27;20435;-55
2023/10/15 05:44:23;;;;;;;0.67;0.67;;;;;;;15.15;80.51;95111.53;5132779;27;20491;-58
2023/10/15 05:46:52;;;;;;;0.70;0.63;;;;;;;15.28;79.49;95105.38;5133071;27;20438;-55
2023/10/15 05:49:21;;;;;;;0.53;0.53;;;;;;;15.76;77.18;95097.53;5132737;27;21085;-56
2023/10/15 05:51:50;;;;;;;0.40;0.30;;;;;;;16.03;75.28;95104.59;5132956;27;20465;-56
2023/10/15 05:54:22;;;;;;;0.50;0.40;;;;;;;16.17;73.73;95107.13;5132352;27;20515;-55
2023/10/15 05:56:50;;;;;;;0.40;0.30;;;;;;;16.43;73.08;95103.47;5132933;27;20438;-55
2023/10/15 05:59:19;;;;;;;1.67;0.60;;;;;;;16.48;71.89;95111.34;5132285;27;20513;-55
2023/10/15 06:01:47;;;;;;;0.70;0.30;;;;;;;16.81;71.42;95108.28;5132975;27;20442;-56
2023/10/15 06:04:16;;;;;;;0.60;0.40;;;;;;;17.15;69.63;95108.34;5132531;27;20439;-57
2023/10/15 06:06:44;;;;;;;0.83;0.83;;;;;;;17.42;68.76;95112.56;5132677;27;20463;-56
2023/10/15 06:09:14;;;;;;;1.53;0.60;;;;;;;17.75;67.59;95122.50;5132125;27;20458;-55
2023/10/15 06:11:43;;;;;;;2.13;0.80;;;;;;;17.99;66.56;95105.84;5132763;27;20481;-55
2023/10/15 06:14:12;;;;;;;0.50;0.50;;;;;;;18.12;66.17;95102.19;5132825;27;20868;-56
2023/10/15 06:16:41;;;;;;;1.50;0.70;;;;;;;18.69;64.30;95102.56;5132842;27;20446;-55
2023/10/15 06:19:10;;;;;;;1.87;0.43;;;;;;;18.78;64.18;95105.97;5132654;27;20511;-55
2023/10/15 06:21:38;;;;;;;0.80;0.80;;;;;;;19.15;63.01;95106.97;5131162;27;20822;-55
2023/10/15 06:24:09;;;;;;;0.67;0.67;;;;;;;19.38;62.32;95105.56;5105488;27;20543;-56
2023/10/15 06:26:39;;;;;;;0.60;0.40;;;;;;;19.60;60.58;95101.75;5131970;27;20466;-55
2023/10/15 06:29:10;;;;;;;0.73;0.73;;;;;;;19.89;59.34;95068.53;5130909;27;20542;-56
2023/10/15 06:31:39;;;;;;;3.90;0.80;;;;;;;19.92;59.28;95087.47;5131572;28;20928;-55
2023/10/15 06:34:07;;;;;;;0.87;0.87;;;;;;;20.05;58.48;95064.88;5132710;28;20449;-55
2023/10/15 06:36:36;;;;;;;1.07;0.77;;;;;;;20.65;57.62;95074.09;5131365;28;20499;-55
2023/10/15 06:39:05;;;;;;;1.33;1.03;;;;;;;20.63;56.96;95073.66;5130151;28;20438;-55
2023/10/15 06:41:33;;;;;;;0.90;0.70;;;;;;;21.18;55.94;95076.50;5130068;28;20951;-55
2023/10/15 06:44:02;;;;;;;1.37;1.27;;;;;;;21.46;55.37;95069.19;5130033;28;20442;-55
2023/10/15 06:46:33;;;;;;;1.03;0.70;;;;;;;21.76;54.41;95066.91;5129811;28;20495;-55
2023/10/15 06:49:01;;;;;;;0.73;0.73;;;;;;;21.61;55.02;95070.38;5129715;28;20450;-55
2023/10/15 06:51:30;;;;;;;0.60;0.50;;;;;;;21.83;54.49;95071.72;5129318;28;21022;-56
2023/10/15 06:53:59;;;;;;;0.60;0.30;;;;;;;22.44;52.92;95061.34;5132234;28;20439;-55
2023/10/15 06:56:28;;;;;;;1.40;1.30;;;;;;;22.15;52.81;95054.47;5105292;28;20434;-56
2023/10/15 06:58:56;;;;;;;1.07;1.07;;;;;;;22.08;51.92;95016.50;5131934;28;20487;-56
2023/10/15 07:01:26;;;;;;;0.83;0.83;;;;;;;22.92;52.66;95050.09;5131752;28;20431;-56
2023/10/15 07:03:56;;;;;;;0.70;0.60;;;;;;;23.73;49.78;95043.63;5132472;28;20513;-56
2023/10/15 07:06:25;;;;;;;2.10;0.70;;;;;;;23.58;49.66;95043.75;5132181;28;20522;-56
2023/10/15 07:08:53;;;;;;;0.67;0.53;;;;;;;23.41;48.97;95050.38;5131795;28;20434;-55
2023/10/15 07:11:23;;;;;;;1.90;0.80;;;;;;;23.54;48.91;95038.25;5134601;27;21020;-55
2023/10/15 07:13:51;;;;;;;0.77;0.50;;;;;;;23.53;49.36;95046.75;5136105;27;20514;-55
2023/10/15 07:16:20;;;;;;;6.97;1.17;;;;;;;23.58;48.99;95043.75;5136193;27;20441;-55
2023/10/15 07:18:48;;;;;;;2.60;0.93;;;;;;;22.75;49.50;95040.47;5135113;27;20466;-55
2023/10/15 07:21:18;;;;;;;1.67;0.70;;;;;;;23.18;49.60;95019.75;5135993;27;20955;-55
2023/10/15 07:23:51;;;;;;;0.50;0.40;;;;;;;23.66;47.86;95021.06;5135890;27;20444;-55
2023/10/15 07:26:19;;;;;;;0.90;0.90;;;;;;;23.66;48.00;95021.06;5135965;27;20486;-56
2023/10/15 07:28:49;;;;;;;0.60;0.50;;;;;;;24.05;47.36;95029.91;5135463;27;20426;-55
2023/10/15 07:31:17;;;;;;;0.80;0.40;;;;;;;24.75;46.71;95016.69;5135555;27;20493;-55
2023/10/15 07:33:46;;;;;;;0.50;0.40;;;;;;;24.50;46.26;95025.25;5136034;27;20464;-55
2023/10/15 07:36:14;;;;;;;0.60;0.60;;;;;;;24.97;46.21;95024.00;5135645;27;20434;-55
2023/10/15 07:38:45;;;;;;;0.40;0.30;;;;;;;25.06;45.94;95019.88;5135257;27;20466;-55
2023/10/15 07:41:13;;;;;;;0.50;0.30;;;;;;;26.16;44.22;95016.44;5121883;27;20435;-55
2023/10/15 07:43:42;;;;;;;0.53;0.53;;;;;;;25.54;43.47;95011.94;5135365;27;20785;-55
2023/10/15 07:46:11;;;;;;;4.63;0.90;;;;;;;24.89;44.35;94998.75;5135453;27;20445;-55
2023/10/15 07:48:41;;;;;;;0.60;0.60;;;;;;;24.78;44.36;94995.09;5135566;27;20435;-54
2023/10/15 07:51:10;;;;;;;0.50;0.50;;;;;;;24.75;45.23;94998.50;5134766;27;20462;-55
2023/10/15 07:53:39;;;;;;;0.60;0.50;;;;;;;24.99;44.87;94987.25;5134593;27;20438;-54
2023/10/15 07:56:09;;;;;;;0.67;0.40;;;;;;;26.05;43.32;94987.59;5135017;27;20520;-54
2023/10/15 07:58:39;;;;;;;0.70;0.60;;;;;;;26.33;42.63;94982.44;5135531;27;20431;-54
2023/10/15 08:01:08;;;;;;;0.70;0.37;;;;;;;26.82;43.04;94976.53;5134752;27;20434;-54
2023/10/15 08:03:40;;;;;;;0.60;0.53;;;;;;;27.03;41.81;94982.09;5134998;27;20498;-54
2023/10/15 08:06:08;;;;;;;0.60;0.60;;;;;;;26.53;41.74;94920.44;5134875;27;20426;-54
2023/10/15 08:08:37;;;;;;;1.57;0.80;;;;;;;26.55;41.19;94975.19;5135601;27;20474;-55
2023/10/15 08:11:06;;;;;;;0.40;0.30;;;;;;;27.41;40.79;94967.91;5134598;27;20474;-54
2023/10/15 08:13:36;;;;;;;0.70;0.53;;;;;;;27.33;40.97;94971.72;5134992;27;20442;-54
2023/10/15 08:16:05;;;;;;;1.03;0.97;;;;;;;28.06;40.37;94966.84;5108107;27;20491;-54
2023/10/15 08:18:33;;;;;;;0.50;0.40;;;;;;;28.28;37.99;94957.53;5134588;27;20942;-55
2023/10/15 08:21:02;;;;;;;0.63;0.63;;;;;;;28.16;38.33;94966.06;5134615;27;20438;-55
2023/10/15 08:23:30;;;;;;;1.03;1.03;;;;;;;27.85;39.37;94953.19;5132951;27;20929;-55
2023/10/15 08:25:59;;;;;;;0.70;0.43;;;;;;;28.21;38.72;94949.31;5134581;27;20515;-55
2023/10/15 08:28:27;;;;;;;0.43;0.40;;;;;;;28.46;38.80;94935.69;5133668;27;20483;-56
2023/10/15 08:30:57;;;;;;;0.50;0.30;;;;;;;29.62;36.38;94948.16;5134570;27;20491;-55
2023/10/15 08:33:26;;;;;;;0.70;0.70;;;;;;;29.45;36.51;94949.81;5133938;27;20462;-56
2023/10/15 08:35:54;;;;;;;0.83;0.83;;;;;;;30.10;36.59;94944.34;5134656;27;20430;-55
2023/10/15 08:38:25;;;;;;;0.40;0.30;;;;;;;30.35;35.38;94930.47;5134223;27;20438;-55
2023/10/15 08:40:56;;;;;;;0.67;0.67;;;;;;;29.67;35.61;94934.88;5134902;27;20463;-55
2023/10/15 08:43:29;;;;;;;1.00;0.40;;;;;;;29.64;35.52;94932.16;5133802;27;20430;-55
2023/10/15 08:46:00;;;;;;;0.50;0.50;;;;;;;29.83;35.36;94923.47;5134578;27;20426;-57
2023/10/15 08:48:30;;;;;;;0.40;0.30;;;;;;;30.00;34.50;94928.03;5133616;27;20431;-57
2023/10/15 08:51:00;;;;;;;0.40;0.40;;;;;;;30.01;35.22;94929.56;5134036;27;21072;-55
2023/10/15 08:53:31;;;;;;;1.00;0.90;;;;;;;29.56;35.29;94931.41;5133536;27;20565;-55
2023/10/15 08:56:01;;;;;;;0.60;0.60;;;;;;;29.64;35.08;94927.47;5133779;27;20813;-56
2023/10/15 08:58:31;;;;;;;1.07;1.00;;;;;;;29.77;34.20;94919.56;5134129;27;20426;-56
2023/10/15 09:01:04;;;;;;;0.80;0.50;;;;;;;31.27;33.55;94921.28;5133690;27;20458;-56
2023/10/15 09:03:32;;;;;;;0.40;0.30;;;;;;;30.78;33.45;94890.56;5133944;27;20922;-56
2023/10/15 09:06:05;;;;;;;0.40;0.30;;;;;;;31.26;32.89;94909.53;5133674;27;20955;-56
2023/10/15 09:08:35;;;;;;;1.20;1.10;;;;;;;30.95;34.61;94904.47;5133952;27;20434;-57
2023/10/15 09:11:04;;;;;;;0.47;0.30;;;;;;;31.15;34.21;94903.44;5133129;27;20446;-57
2023/10/15 09:13:36;;;;;;;0.47;0.47;;;;;;;30.88;33.36;94896.31;5133921;27;20476;-58
2023/10/15 09:16:09;;;;;;;0.60;0.53;;;;;;;29.95;33.84;94849.97;5134189;27;20436;-58
2023/10/15 09:18:38;;;;;;;0.60;0.60;;;;;;;29.52;34.82;94895.16;5133119;27;20951;-58
2023/10/15 09:21:08;;;;;;;0.47;0.47;;;;;;;30.91;34.26;94890.06;5133516;27;20517;-57
2023/10/15 09:23:37;;;;;;;0.57;0.40;;;;;;;31.58;32.30;94880.94;5133446;27;20433;-57
2023/10/15 09:26:09;;;;;;;2.53;0.90;;;;;;;31.16;33.47;94885.03;5133371;27;20470;-58
2023/10/15 09:28:38;;;;;;;2.60;0.70;;;;;;;30.41;34.85;94887.06;5133433;27;20434;-58
2023/10/15 09:31:10;;;;;;;0.50;0.43;;;;;;;30.85;33.56;94881.47;5133856;27;20430;-58
2023/10/15 09:33:40;;;;;;;0.93;0.93;;;;;;;31.01;32.79;94878.97;5132067;27;20889;-58
2023/10/15 09:36:08;;;;;;;0.40;0.30;;;;;;;31.54;32.25;94863.78;5133295;27;20480;-58
2023/10/15 09:38:37;;;;;;;0.50;0.33;;;;;;;31.96;32.43;94860.38;5132990;27;20429;-58
2023/10/15 09:41:06;;;;;;;0.40;0.30;;;;;;;32.46;32.32;94844.63;5133422;27;20452;-58
2023/10/15 09:43:35;;;;;;;1.70;0.40;;;;;;;31.35;31.52;94740.00;5132853;27;20430;-59
2023/10/15 09:46:07;;;;;;;0.30;0.30;;;;;;;32.42;31.97;94841.19;5132628;27;20466;-57
2023/10/15 09:48:39;;;;;;;0.40;0.30;;;;;;;33.57;30.31;94830.22;5132267;27;20433;-58
2023/10/15 09:51:11;;;;;;;2.93;0.50;;;;;;;33.51;30.90;94816.19;5131273;27;20438;-57
2023/10/15 09:53:41;;;;;;;2.13;2.03;;;;;;;33.46;30.22;94819.44;5132396;27;20473;-58
2023/10/15 09:56:12;;;;;;;0.60;0.60;;;;;;;33.88;30.94;94814.16;5132443;27;20442;-58
2023/10/15 09:58:42;;;;;;;0.43;0.37;;;;;;;32.81;32.77;94813.00;5133227;27;20437;-59
2023/10/15 10:01:25;;;;;;;0.40;0.30;;;;;;;33.64;30.74;94808.03;5133087;27;20437;-59
2023/10/15 10:04:40;;;;;;;0.83;0.60;;;;;;;32.10;32.30;94807.31;5132619;27;20517;-58
2023/10/15 10:07:26;;;;;;;1.73;0.70;;;;;;;32.23;31.55;94798.03;5104078;27;20452;-58
2023/10/15 10:10:31;;;;;;;0.93;0.87;;;;;;;33.45;30.72;94795.91;5133177;27;20434;-59
2023/10/15 10:13:35;;;;;;;0.40;0.30;;;;;;;34.48;28.85;94792.09;5117265;27;20546;-59
2023/10/15 10:16:11;;;;;;;0.40;0.30;;;;;;;35.62;27.67;94775.78;5132335;27;20441;-59
2023/10/15 10:18:42;;;;;;;0.83;0.37;;;;;;;35.47;28.92;94771.94;5132346;27;20426;-59
2023/10/15 10:21:11;;;;;;;0.53;0.40;;;;;;;34.25;29.63;94764.84;5133107;27;20473;-59
2023/10/15 10:23:42;;;;;;;0.40;0.30;;;;;;;33.25;30.69;94759.47;5132691;27;20521;-59
2023/10/15 10:26:19;;;;;;;1.60;0.40;;;;;;;33.93;30.41;94753.13;5132127;27;20235;-59
2023/10/15 10:28:48;;;;;;;0.40;0.30;;;;;;;33.74;30.67;94752.03;5133047;27;20189;-59
2023/10/15 10:31:18;;;;;;;1.00;0.50;;;;;;;34.39;30.68;94755.41;5132878;27;20563;-59
2023/10/15 10:33:53;;;;;;;1.27;0.57;;;;;;;34.63;30.69;94745.72;5132116;27;20208;-60
2023/10/15 10:36:25;;;;;;;0.40;0.40;;;;;;;34.65;28.56;94748.81;5132357;28;20217;-59
2023/10/15 10:39:00;;;;;;;0.87;0.67;;;;;;;34.26;29.79;94751.84;5132513;28;20188;-59
2023/10/15 10:41:37;;;;;;;0.83;0.83;;;;;;;34.92;29.88;94745.66;5132262;28;20275;-59
2023/10/15 10:44:07;;;;;;;0.60;0.60;;;;;;;35.37;29.93;94731.69;5132816;28;20200;-60
2023/10/15 10:46:54;;;;;;;0.70;0.70;;;;;;;35.53;29.70;94726.06;5136512;27;20192;-59
2023/10/15 10:49:38;;;;;;;0.60;0.57;;;;;;;35.65;28.96;94716.97;5136833;27;20554;-59
2023/10/15 10:52:14;;;;;;;8.80;3.03;;;;;;;35.52;28.10;94713.47;5136261;27;20198;-59
2023/10/15 10:54:45;;;;;;;1.40;1.17;;;;;;;35.22;28.94;94712.06;5136503;27;20199;-60
2023/10/15 10:57:18;;;;;;;1.00;0.97;;;;;;;34.67;30.10;94713.34;5136381;27;20211;-60
2023/10/15 10:59:48;;;;;;;0.60;0.60;;;;;;;35.09;30.14;94708.56;5135826;27;20192;-60
2023/10/15 11:02:18;;;;;;;0.80;0.70;;;;;;;34.43;30.32;94703.81;5135796;27;20681;-60
2023/10/15 11:04:47;;;;;;;0.50;0.50;;;;;;;34.68;29.12;94706.66;5109327;27;20230;-59
2023/10/15 11:07:16;;;;;;;0.70;0.60;;;;;;;34.99;27.99;94698.63;5135396;27;20202;-60
2023/10/15 11:09:46;;;;;;;0.50;0.40;;;;;;;35.93;27.66;94690.41;5136360;27;20192;-60
2023/10/15 11:12:18;;;;;;;1.33;0.47;;;;;;;36.68;26.75;94678.25;5136217;27;20200;-58
2023/10/15 11:14:46;;;;;;;0.47;0.47;;;;;;;36.68;27.51;94683.78;5135976;27;20208;-58
2023/10/15 11:17:15;;;;;;;1.35;1.30;;;;;;;36.07;26.54;94667.88;5136002;27;20249;-58
2023/10/15 11:19:44;;;;;;;1.02;1.02;;;;;;;36.02;27.22;94674.75;5136157;27;20199;-58
2023/10/15 11:22:14;;;;;;;0.55;0.50;;;;;;;36.86;26.12;94667.31;5135628;27;20214;-58
2023/10/15 11:24:43;;;;;;;0.60;0.60;;;;;;;37.00;27.88;94668.75;5135359;27;20677;-58
2023/10/15 11:27:13;;;;;;;1.10;0.40;;;;;;;36.88;26.93;94670.38;5134699;27;20234;-58
2023/10/15 11:29:43;;;;;;;0.98;0.40;;;;;;;36.94;25.76;94657.53;5135556;27;20192;-58
2023/10/15 11:32:12;;;;;;;1.25;0.50;;;;;;;37.12;25.66;94663.09;5135837;27;20195;-58
2023/10/15 11:34:41;;;;;;;2.70;0.63;;;;;;;37.48;26.09;94654.16;5135755;27;20227;-58
2023/10/15 11:37:10;;;;;;;2.53;0.40;;;;;;;37.35;26.55;94659.03;5122556;27;20729;-60
2023/10/15 11:39:43;;;;;;;0.68;0.55;;;;;;;37.41;26.47;94654.47;5136042;27;20200;-58
2023/10/15 11:42:18;;;;;;;0.60;0.60;;;;;;;36.41;25.79;94631.16;5135916;27;20215;-59
2023/10/15 11:44:55;;;;;;;0.50;0.40;;;;;;;37.24;26.71;94650.41;5135647;27;20202;-59
2023/10/15 11:47:27;;;;;;;0.80;0.47;;;;;;;36.47;25.89;94649.47;5135901;27;20203;-58
2023/10/15 11:49:59;;;;;;;1.95;0.60;;;;;;;36.78;26.65;94643.94;5135979;27;20193;-59
2023/10/15 11:52:27;;;;;;;0.40;0.40;;;;;;;35.44;27.71;94646.00;5135148;27;20200;-59
2023/10/15 11:54:57;;;;;;;0.80;0.80;;;;;;;36.48;26.03;94637.22;5135680;27;20212;-59
2023/10/15 11:57:29;;;;;;;0.47;0.43;;;;;;;35.14;27.34;94635.63;5134326;27;20199;-58